sensor_id;sensor_type;location;lat;lon;timestamp;P1;durP1;ratioP1;P2;durP2;ratioP2
31386;SDS011;69978;50.096;8.448;2023-12-20T00:00:58;7.75;;;2.60;;
31386;SDS011;69978;50.096;8.448;2023-12-20T00:03:23;7.90;;;2.70;;
31386;SDS011;69978;50.096;8.448;2023-12-20T00:05:49;6.30;;;2.58;;
31386;SDS011;69978;50.096;8.448;2023-12-20T00:08:15;7.07;;;3.00;;
31386;SDS011;69978;50.096;8.448;2023-12-20T00:10:41;6.40;;;2.35;;
31386;SDS011;69978;50.096;8.448;2023-12-20T00:13:06;6.88;;;2.75;;
31386;SDS011;69978;50.096;8.448;2023-12-20T00:15:33;6.40;;;2.55;;
31386;SDS011;69978;50.096;8.448;2023-12-20T00:17:58;7.20;;;2.83;;
31386;SDS011;69978;50.096;8.448;2023-12-20T00:20:24;6.75;;;2.65;;
31386;SDS011;69978;50.096;8.448;2023-12-20T00:22:50;6.75;;;2.83;;
31386;SDS011;69978;50.096;8.448;2023-12-20T00:25:15;9.02;;;2.75;;
31386;SDS011;69978;50.096;8.448;2023-12-20T00:27:41;4.95;;;2.20;;
31386;SDS011;69978;50.096;8.448;2023-12-20T00:30:07;6.50;;;2.45;;
31386;SDS011;69978;50.096;8.448;2023-12-20T00:32:34;7.60;;;2.35;;
31386;SDS011;69978;50.096;8.448;2023-12-20T00:35:00;7.53;;;2.47;;
31386;SDS011;69978;50.096;8.448;2023-12-20T00:37:26;6.57;;;2.47;;
31386;SDS011;69978;50.096;8.448;2023-12-20T00:39:53;7.22;;;2.40;;
31386;SDS011;69978;50.096;8.448;2023-12-20T00:42:18;7.70;;;2.58;;
31386;SDS011;69978;50.096;8.448;2023-12-20T00:44:44;16.08;;;3.30;;
31386;SDS011;69978;50.096;8.448;2023-12-20T00:47:09;7.70;;;2.15;;
31386;SDS011;69978;50.096;8.448;2023-12-20T00:49:35;5.82;;;2.40;;
31386;SDS011;69978;50.096;8.448;2023-12-20T00:52:00;7.78;;;2.55;;
31386;SDS011;69978;50.096;8.448;2023-12-20T00:54:26;8.85;;;2.90;;
31386;SDS011;69978;50.096;8.448;2023-12-20T00:56:52;8.45;;;3.10;;
31386;SDS011;69978;50.096;8.448;2023-12-20T00:59:17;7.65;;;2.92;;
31386;SDS011;69978;50.096;8.448;2023-12-20T01:01:43;6.07;;;2.72;;
31386;SDS011;69978;50.096;8.448;2023-12-20T01:04:09;5.75;;;2.88;;
31386;SDS011;69978;50.096;8.448;2023-12-20T01:06:35;5.88;;;2.70;;
31386;SDS011;69978;50.096;8.448;2023-12-20T01:09:00;6.97;;;2.83;;
31386;SDS011;69978;50.096;8.448;2023-12-20T01:11:26;7.13;;;2.85;;
31386;SDS011;69978;50.096;8.448;2023-12-20T01:13:51;7.20;;;2.75;;
31386;SDS011;69978;50.096;8.448;2023-12-20T01:16:17;4.15;;;2.13;;
31386;SDS011;69978;50.096;8.448;2023-12-20T01:18:43;4.50;;;2.17;;
31386;SDS011;69978;50.096;8.448;2023-12-20T01:21:08;4.88;;;2.20;;
31386;SDS011;69978;50.096;8.448;2023-12-20T01:23:35;3.92;;;2.00;;
31386;SDS011;69978;50.096;8.448;2023-12-20T01:26:01;4.00;;;1.80;;
31386;SDS011;69978;50.096;8.448;2023-12-20T01:28:28;6.18;;;2.40;;
31386;SDS011;69978;50.096;8.448;2023-12-20T01:30:53;4.05;;;2.00;;
31386;SDS011;69978;50.096;8.448;2023-12-20T01:33:19;5.88;;;2.20;;
31386;SDS011;69978;50.096;8.448;2023-12-20T01:35:44;4.60;;;2.08;;
31386;SDS011;69978;50.096;8.448;2023-12-20T01:38:10;4.75;;;1.90;;
31386;SDS011;69978;50.096;8.448;2023-12-20T01:40:35;5.72;;;2.00;;
31386;SDS011;69978;50.096;8.448;2023-12-20T01:43:02;4.63;;;2.20;;
31386;SDS011;69978;50.096;8.448;2023-12-20T01:45:31;4.78;;;2.20;;
31386;SDS011;69978;50.096;8.448;2023-12-20T01:47:57;6.07;;;2.20;;
31386;SDS011;69978;50.096;8.448;2023-12-20T01:50:24;4.00;;;2.00;;
31386;SDS011;69978;50.096;8.448;2023-12-20T01:52:50;4.43;;;2.05;;
31386;SDS011;69978;50.096;8.448;2023-12-20T01:55:17;4.75;;;2.40;;
31386;SDS011;69978;50.096;8.448;2023-12-20T01:57:44;4.15;;;1.88;;
31386;SDS011;69978;50.096;8.448;2023-12-20T02:00:12;6.05;;;1.90;;
31386;SDS011;69978;50.096;8.448;2023-12-20T02:02:39;5.18;;;2.10;;
31386;SDS011;69978;50.096;8.448;2023-12-20T02:05:06;4.22;;;2.08;;
31386;SDS011;69978;50.096;8.448;2023-12-20T02:07:32;5.50;;;2.00;;
31386;SDS011;69978;50.096;8.448;2023-12-20T02:09:59;4.53;;;2.25;;
31386;SDS011;69978;50.096;8.448;2023-12-20T02:12:25;4.65;;;2.13;;
31386;SDS011;69978;50.096;8.448;2023-12-20T02:14:51;4.80;;;2.13;;
31386;SDS011;69978;50.096;8.448;2023-12-20T02:17:17;4.13;;;1.90;;
31386;SDS011;69978;50.096;8.448;2023-12-20T02:19:43;7.57;;;2.40;;
31386;SDS011;69978;50.096;8.448;2023-12-20T02:22:12;4.30;;;2.15;;
31386;SDS011;69978;50.096;8.448;2023-12-20T02:24:38;4.68;;;2.13;;
31386;SDS011;69978;50.096;8.448;2023-12-20T02:27:04;4.85;;;2.40;;
31386;SDS011;69978;50.096;8.448;2023-12-20T02:29:32;5.43;;;2.10;;
31386;SDS011;69978;50.096;8.448;2023-12-20T02:31:58;4.82;;;2.30;;
31386;SDS011;69978;50.096;8.448;2023-12-20T02:34:24;3.65;;;2.03;;
31386;SDS011;69978;50.096;8.448;2023-12-20T02:36:49;6.15;;;2.00;;
31386;SDS011;69978;50.096;8.448;2023-12-20T02:39:15;4.22;;;1.80;;
31386;SDS011;69978;50.096;8.448;2023-12-20T02:41:41;4.93;;;1.90;;
31386;SDS011;69978;50.096;8.448;2023-12-20T02:44:06;4.18;;;1.65;;
31386;SDS011;69978;50.096;8.448;2023-12-20T02:46:32;5.78;;;1.90;;
31386;SDS011;69978;50.096;8.448;2023-12-20T02:48:57;3.83;;;1.42;;
31386;SDS011;69978;50.096;8.448;2023-12-20T02:51:23;4.38;;;1.90;;
31386;SDS011;69978;50.096;8.448;2023-12-20T02:53:49;6.60;;;2.15;;
31386;SDS011;69978;50.096;8.448;2023-12-20T02:56:14;3.83;;;1.73;;
31386;SDS011;69978;50.096;8.448;2023-12-20T02:58:40;4.35;;;1.35;;
31386;SDS011;69978;50.096;8.448;2023-12-20T03:01:05;3.58;;;1.75;;
31386;SDS011;69978;50.096;8.448;2023-12-20T03:03:31;4.97;;;1.80;;
31386;SDS011;69978;50.096;8.448;2023-12-20T03:05:57;4.25;;;1.70;;
31386;SDS011;69978;50.096;8.448;2023-12-20T03:08:23;3.35;;;1.60;;
31386;SDS011;69978;50.096;8.448;2023-12-20T03:10:48;4.15;;;1.65;;
31386;SDS011;69978;50.096;8.448;2023-12-20T03:13:14;4.53;;;1.90;;
31386;SDS011;69978;50.096;8.448;2023-12-20T03:15:40;4.45;;;1.50;;
31386;SDS011;69978;50.096;8.448;2023-12-20T03:18:05;3.95;;;1.63;;
31386;SDS011;69978;50.096;8.448;2023-12-20T03:20:31;3.38;;;1.63;;
31386;SDS011;69978;50.096;8.448;2023-12-20T03:23:00;7.35;;;1.88;;
31386;SDS011;69978;50.096;8.448;2023-12-20T03:25:25;3.40;;;1.83;;
31386;SDS011;69978;50.096;8.448;2023-12-20T03:27:51;3.10;;;1.75;;
31386;SDS011;69978;50.096;8.448;2023-12-20T03:30:18;3.33;;;1.67;;
31386;SDS011;69978;50.096;8.448;2023-12-20T03:32:43;3.53;;;1.63;;
31386;SDS011;69978;50.096;8.448;2023-12-20T03:35:09;3.28;;;1.52;;
31386;SDS011;69978;50.096;8.448;2023-12-20T03:37:35;2.15;;;1.33;;
31386;SDS011;69978;50.096;8.448;2023-12-20T03:40:01;5.05;;;1.65;;
31386;SDS011;69978;50.096;8.448;2023-12-20T03:42:26;4.43;;;1.63;;
31386;SDS011;69978;50.096;8.448;2023-12-20T03:44:52;3.85;;;1.88;;
31386;SDS011;69978;50.096;8.448;2023-12-20T03:47:17;3.70;;;1.30;;
31386;SDS011;69978;50.096;8.448;2023-12-20T03:49:43;3.67;;;1.40;;
31386;SDS011;69978;50.096;8.448;2023-12-20T03:52:08;2.70;;;1.30;;
31386;SDS011;69978;50.096;8.448;2023-12-20T03:54:37;3.63;;;1.40;;
31386;SDS011;69978;50.096;8.448;2023-12-20T03:57:03;4.40;;;1.98;;
31386;SDS011;69978;50.096;8.448;2023-12-20T03:59:29;3.38;;;1.48;;
31386;SDS011;69978;50.096;8.448;2023-12-20T04:01:55;3.70;;;1.35;;
31386;SDS011;69978;50.096;8.448;2023-12-20T04:04:20;3.22;;;1.45;;
31386;SDS011;69978;50.096;8.448;2023-12-20T04:06:46;2.30;;;1.20;;
31386;SDS011;69978;50.096;8.448;2023-12-20T04:09:12;2.78;;;1.42;;
31386;SDS011;69978;50.096;8.448;2023-12-20T04:11:37;3.00;;;1.40;;
31386;SDS011;69978;50.096;8.448;2023-12-20T04:14:03;3.28;;;1.10;;
31386;SDS011;69978;50.096;8.448;2023-12-20T04:16:32;2.75;;;1.20;;
31386;SDS011;69978;50.096;8.448;2023-12-20T04:18:57;3.35;;;1.50;;
31386;SDS011;69978;50.096;8.448;2023-12-20T04:21:23;2.88;;;1.15;;
31386;SDS011;69978;50.096;8.448;2023-12-20T04:23:50;2.88;;;1.35;;
31386;SDS011;69978;50.096;8.448;2023-12-20T04:26:16;2.65;;;1.27;;
31386;SDS011;69978;50.096;8.448;2023-12-20T04:28:41;2.85;;;1.50;;
31386;SDS011;69978;50.096;8.448;2023-12-20T04:31:07;2.50;;;1.10;;
31386;SDS011;69978;50.096;8.448;2023-12-20T04:33:33;2.40;;;1.30;;
31386;SDS011;69978;50.096;8.448;2023-12-20T04:35:58;2.60;;;0.98;;
31386;SDS011;69978;50.096;8.448;2023-12-20T04:38:25;2.90;;;1.38;;
31386;SDS011;69978;50.096;8.448;2023-12-20T04:40:50;2.75;;;1.45;;
31386;SDS011;69978;50.096;8.448;2023-12-20T04:43:17;2.58;;;1.30;;
31386;SDS011;69978;50.096;8.448;2023-12-20T04:45:42;3.35;;;1.20;;
31386;SDS011;69978;50.096;8.448;2023-12-20T04:48:08;2.05;;;0.90;;
31386;SDS011;69978;50.096;8.448;2023-12-20T04:50:34;4.88;;;0.90;;
31386;SDS011;69978;50.096;8.448;2023-12-20T04:52:59;3.10;;;1.15;;
31386;SDS011;69978;50.096;8.448;2023-12-20T04:55:25;2.47;;;0.95;;
31386;SDS011;69978;50.096;8.448;2023-12-20T04:57:51;2.58;;;1.00;;
31386;SDS011;69978;50.096;8.448;2023-12-20T05:00:17;5.05;;;1.25;;
31386;SDS011;69978;50.096;8.448;2023-12-20T05:02:42;4.07;;;1.13;;
31386;SDS011;69978;50.096;8.448;2023-12-20T05:05:08;8.77;;;1.50;;
31386;SDS011;69978;50.096;8.448;2023-12-20T05:07:34;5.22;;;1.30;;
31386;SDS011;69978;50.096;8.448;2023-12-20T05:10:00;4.63;;;0.90;;
31386;SDS011;69978;50.096;8.448;2023-12-20T05:12:25;2.40;;;0.82;;
31386;SDS011;69978;50.096;8.448;2023-12-20T05:14:51;7.38;;;0.90;;
31386;SDS011;69978;50.096;8.448;2023-12-20T05:17:17;2.75;;;0.77;;
31386;SDS011;69978;50.096;8.448;2023-12-20T05:19:43;5.88;;;0.75;;
31386;SDS011;69978;50.096;8.448;2023-12-20T05:22:08;5.85;;;0.70;;
31386;SDS011;69978;50.096;8.448;2023-12-20T05:24:34;6.03;;;0.52;;
31386;SDS011;69978;50.096;8.448;2023-12-20T05:27:00;4.70;;;0.70;;
31386;SDS011;69978;50.096;8.448;2023-12-20T05:29:25;4.13;;;0.50;;
31386;SDS011;69978;50.096;8.448;2023-12-20T05:31:51;2.25;;;0.65;;
31386;SDS011;69978;50.096;8.448;2023-12-20T05:34:17;8.18;;;0.45;;
31386;SDS011;69978;50.096;8.448;2023-12-20T05:36:42;6.18;;;0.75;;
31386;SDS011;69978;50.096;8.448;2023-12-20T05:39:08;2.72;;;1.00;;
31386;SDS011;69978;50.096;8.448;2023-12-20T05:41:33;1.98;;;0.38;;
31386;SDS011;69978;50.096;8.448;2023-12-20T05:43:59;3.67;;;0.50;;
31386;SDS011;69978;50.096;8.448;2023-12-20T05:46:25;5.78;;;0.40;;
31386;SDS011;69978;50.096;8.448;2023-12-20T05:48:51;7.95;;;0.70;;
31386;SDS011;69978;50.096;8.448;2023-12-20T05:51:16;6.13;;;0.57;;
31386;SDS011;69978;50.096;8.448;2023-12-20T05:53:42;6.85;;;0.63;;
31386;SDS011;69978;50.096;8.448;2023-12-20T05:56:09;2.83;;;0.30;;
31386;SDS011;69978;50.096;8.448;2023-12-20T05:58:35;5.85;;;0.40;;
31386;SDS011;69978;50.096;8.448;2023-12-20T06:01:03;5.53;;;0.43;;
31386;SDS011;69978;50.096;8.448;2023-12-20T06:03:29;6.30;;;0.35;;
31386;SDS011;69978;50.096;8.448;2023-12-20T06:05:55;5.55;;;0.50;;
31386;SDS011;69978;50.096;8.448;2023-12-20T06:08:20;1.48;;;0.40;;
31386;SDS011;69978;50.096;8.448;2023-12-20T06:10:46;3.20;;;0.40;;
31386;SDS011;69978;50.096;8.448;2023-12-20T06:13:12;7.38;;;0.47;;
31386;SDS011;69978;50.096;8.448;2023-12-20T06:15:38;4.22;;;0.50;;
31386;SDS011;69978;50.096;8.448;2023-12-20T06:18:05;4.13;;;0.75;;
31386;SDS011;69978;50.096;8.448;2023-12-20T06:20:31;3.55;;;0.38;;
31386;SDS011;69978;50.096;8.448;2023-12-20T06:22:57;4.28;;;0.75;;
31386;SDS011;69978;50.096;8.448;2023-12-20T06:25:22;7.05;;;0.60;;
31386;SDS011;69978;50.096;8.448;2023-12-20T06:27:48;4.93;;;0.57;;
31386;SDS011;69978;50.096;8.448;2023-12-20T06:30:13;4.78;;;0.45;;
31386;SDS011;69978;50.096;8.448;2023-12-20T06:32:40;4.65;;;0.40;;
31386;SDS011;69978;50.096;8.448;2023-12-20T06:35:07;6.75;;;0.70;;
31386;SDS011;69978;50.096;8.448;2023-12-20T06:37:36;4.65;;;0.55;;
31386;SDS011;69978;50.096;8.448;2023-12-20T06:40:01;5.32;;;0.47;;
31386;SDS011;69978;50.096;8.448;2023-12-20T06:42:27;11.45;;;1.20;;
31386;SDS011;69978;50.096;8.448;2023-12-20T06:44:52;3.80;;;0.80;;
31386;SDS011;69978;50.096;8.448;2023-12-20T06:47:18;8.18;;;0.77;;
31386;SDS011;69978;50.096;8.448;2023-12-20T06:49:44;5.20;;;0.60;;
31386;SDS011;69978;50.096;8.448;2023-12-20T06:52:09;5.97;;;0.93;;
31386;SDS011;69978;50.096;8.448;2023-12-20T06:54:35;7.63;;;1.00;;
31386;SDS011;69978;50.096;8.448;2023-12-20T06:57:00;8.32;;;0.88;;
31386;SDS011;69978;50.096;8.448;2023-12-20T06:59:28;5.88;;;1.27;;
31386;SDS011;69978;50.096;8.448;2023-12-20T07:01:54;5.93;;;0.70;;
31386;SDS011;69978;50.096;8.448;2023-12-20T07:04:19;7.38;;;0.70;;
31386;SDS011;69978;50.096;8.448;2023-12-20T07:06:46;4.00;;;0.70;;
31386;SDS011;69978;50.096;8.448;2023-12-20T07:09:13;6.32;;;1.30;;
31386;SDS011;69978;50.096;8.448;2023-12-20T07:11:39;10.80;;;1.75;;
31386;SDS011;69978;50.096;8.448;2023-12-20T07:14:04;10.55;;;1.40;;
31386;SDS011;69978;50.096;8.448;2023-12-20T07:16:30;7.40;;;1.20;;
31386;SDS011;69978;50.096;8.448;2023-12-20T07:18:55;5.93;;;1.08;;
31386;SDS011;69978;50.096;8.448;2023-12-20T07:21:22;4.28;;;0.80;;
31386;SDS011;69978;50.096;8.448;2023-12-20T07:23:47;11.40;;;1.20;;
31386;SDS011;69978;50.096;8.448;2023-12-20T07:26:13;3.72;;;0.80;;
31386;SDS011;69978;50.096;8.448;2023-12-20T07:28:39;5.25;;;1.10;;
31386;SDS011;69978;50.096;8.448;2023-12-20T07:31:05;6.65;;;0.77;;
31386;SDS011;69978;50.096;8.448;2023-12-20T07:33:31;4.22;;;0.60;;
31386;SDS011;69978;50.096;8.448;2023-12-20T07:35:57;5.40;;;1.00;;
31386;SDS011;69978;50.096;8.448;2023-12-20T07:38:24;3.92;;;0.90;;
31386;SDS011;69978;50.096;8.448;2023-12-20T07:40:49;3.60;;;0.60;;
31386;SDS011;69978;50.096;8.448;2023-12-20T07:43:15;2.58;;;0.55;;
31386;SDS011;69978;50.096;8.448;2023-12-20T07:45:40;5.80;;;0.73;;
31386;SDS011;69978;50.096;8.448;2023-12-20T07:48:06;9.52;;;0.75;;
31386;SDS011;69978;50.096;8.448;2023-12-20T07:50:32;8.45;;;1.25;;
31386;SDS011;69978;50.096;8.448;2023-12-20T07:52:58;4.45;;;0.77;;
31386;SDS011;69978;50.096;8.448;2023-12-20T07:55:25;5.88;;;0.80;;
31386;SDS011;69978;50.096;8.448;2023-12-20T07:57:51;7.88;;;1.08;;
31386;SDS011;69978;50.096;8.448;2023-12-20T08:00:17;5.60;;;0.90;;
31386;SDS011;69978;50.096;8.448;2023-12-20T08:02:43;5.07;;;0.77;;
31386;SDS011;69978;50.096;8.448;2023-12-20T08:05:08;5.78;;;1.00;;
31386;SDS011;69978;50.096;8.448;2023-12-20T08:07:34;7.70;;;1.10;;
31386;SDS011;69978;50.096;8.448;2023-12-20T08:10:00;6.55;;;1.02;;
31386;SDS011;69978;50.096;8.448;2023-12-20T08:12:25;5.60;;;0.80;;
31386;SDS011;69978;50.096;8.448;2023-12-20T08:14:52;3.65;;;0.90;;
31386;SDS011;69978;50.096;8.448;2023-12-20T08:17:19;6.07;;;0.90;;
31386;SDS011;69978;50.096;8.448;2023-12-20T08:19:45;8.07;;;0.98;;
31386;SDS011;69978;50.096;8.448;2023-12-20T08:22:11;9.40;;;1.73;;
31386;SDS011;69978;50.096;8.448;2023-12-20T08:24:36;5.75;;;0.93;;
31386;SDS011;69978;50.096;8.448;2023-12-20T08:27:02;8.25;;;1.10;;
31386;SDS011;69978;50.096;8.448;2023-12-20T08:29:29;21.17;;;2.00;;
31386;SDS011;69978;50.096;8.448;2023-12-20T08:31:54;9.98;;;1.08;;
31386;SDS011;69978;50.096;8.448;2023-12-20T08:34:20;10.40;;;1.30;;
31386;SDS011;69978;50.096;8.448;2023-12-20T08:36:46;12.73;;;1.67;;
31386;SDS011;69978;50.096;8.448;2023-12-20T08:39:11;6.60;;;0.98;;
31386;SDS011;69978;50.096;8.448;2023-12-20T08:41:37;5.95;;;0.95;;
31386;SDS011;69978;50.096;8.448;2023-12-20T08:44:03;6.32;;;0.90;;
31386;SDS011;69978;50.096;8.448;2023-12-20T08:46:29;8.45;;;1.13;;
31386;SDS011;69978;50.096;8.448;2023-12-20T08:48:54;6.43;;;0.90;;
31386;SDS011;69978;50.096;8.448;2023-12-20T08:51:20;4.80;;;0.93;;
31386;SDS011;69978;50.096;8.448;2023-12-20T08:53:47;7.70;;;1.00;;
31386;SDS011;69978;50.096;8.448;2023-12-20T08:56:14;8.90;;;1.10;;
31386;SDS011;69978;50.096;8.448;2023-12-20T08:58:42;4.93;;;1.00;;
31386;SDS011;69978;50.096;8.448;2023-12-20T09:01:08;7.03;;;0.80;;
31386;SDS011;69978;50.096;8.448;2023-12-20T09:03:34;4.93;;;0.52;;
31386;SDS011;69978;50.096;8.448;2023-12-20T09:05:59;6.95;;;0.60;;
31386;SDS011;69978;50.096;8.448;2023-12-20T09:08:25;3.95;;;1.13;;
31386;SDS011;69978;50.096;8.448;2023-12-20T09:10:51;7.65;;;1.05;;
31386;SDS011;69978;50.096;8.448;2023-12-20T09:13:17;6.80;;;0.80;;
31386;SDS011;69978;50.096;8.448;2023-12-20T09:15:42;6.28;;;0.80;;
31386;SDS011;69978;50.096;8.448;2023-12-20T09:18:08;8.30;;;0.88;;
31386;SDS011;69978;50.096;8.448;2023-12-20T09:20:34;10.38;;;0.85;;
31386;SDS011;69978;50.096;8.448;2023-12-20T09:23:00;5.43;;;0.90;;
31386;SDS011;69978;50.096;8.448;2023-12-20T09:25:25;12.73;;;1.00;;
31386;SDS011;69978;50.096;8.448;2023-12-20T09:27:51;5.40;;;0.82;;
31386;SDS011;69978;50.096;8.448;2023-12-20T09:30:18;4.50;;;1.30;;
31386;SDS011;69978;50.096;8.448;2023-12-20T09:32:44;3.83;;;0.80;;
31386;SDS011;69978;50.096;8.448;2023-12-20T09:35:10;6.50;;;1.02;;
31386;SDS011;69978;50.096;8.448;2023-12-20T09:37:36;4.28;;;0.98;;
31386;SDS011;69978;50.096;8.448;2023-12-20T09:40:02;9.13;;;0.80;;
31386;SDS011;69978;50.096;8.448;2023-12-20T09:43:14;6.35;;;0.80;;
31386;SDS011;69978;50.096;8.448;2023-12-20T09:45:26;10.23;;;0.85;;
31386;SDS011;69978;50.096;8.448;2023-12-20T09:47:52;7.32;;;0.90;;
31386;SDS011;69978;50.096;8.448;2023-12-20T09:50:19;8.00;;;1.15;;
31386;SDS011;69978;50.096;8.448;2023-12-20T09:52:49;8.05;;;1.10;;
31386;SDS011;69978;50.096;8.448;2023-12-20T09:55:19;6.93;;;0.77;;
31386;SDS011;69978;50.096;8.448;2023-12-20T09:57:47;6.18;;;0.85;;
31386;SDS011;69978;50.096;8.448;2023-12-20T10:00:14;5.57;;;0.85;;
31386;SDS011;69978;50.096;8.448;2023-12-20T10:02:42;4.78;;;0.93;;
31386;SDS011;69978;50.096;8.448;2023-12-20T10:05:15;7.38;;;0.85;;
31386;SDS011;69978;50.096;8.448;2023-12-20T10:07:44;6.47;;;1.00;;
31386;SDS011;69978;50.096;8.448;2023-12-20T10:10:10;6.88;;;1.00;;
31386;SDS011;69978;50.096;8.448;2023-12-20T10:12:38;6.55;;;0.90;;
31386;SDS011;69978;50.096;8.448;2023-12-20T10:15:03;7.15;;;0.80;;
31386;SDS011;69978;50.096;8.448;2023-12-20T10:17:30;7.88;;;0.80;;
31386;SDS011;69978;50.096;8.448;2023-12-20T10:19:57;4.07;;;0.60;;
31386;SDS011;69978;50.096;8.448;2023-12-20T10:22:23;4.10;;;0.68;;
31386;SDS011;69978;50.096;8.448;2023-12-20T10:24:49;11.95;;;1.73;;
31386;SDS011;69978;50.096;8.448;2023-12-20T10:27:14;5.07;;;1.08;;
31386;SDS011;69978;50.096;8.448;2023-12-20T10:29:44;8.32;;;1.02;;
31386;SDS011;69978;50.096;8.448;2023-12-20T10:34:49;7.00;;;0.80;;
31386;SDS011;69978;50.096;8.448;2023-12-20T10:37:15;8.55;;;0.80;;
31386;SDS011;69978;50.096;8.448;2023-12-20T10:39:41;3.00;;;0.82;;
31386;SDS011;69978;50.096;8.448;2023-12-20T10:42:08;9.43;;;0.70;;
31386;SDS011;69978;50.096;8.448;2023-12-20T10:44:36;6.47;;;0.70;;
31386;SDS011;69978;50.096;8.448;2023-12-20T10:47:02;5.95;;;1.00;;
31386;SDS011;69978;50.096;8.448;2023-12-20T10:49:29;3.97;;;0.82;;
31386;SDS011;69978;50.096;8.448;2023-12-20T10:51:56;7.32;;;0.73;;
31386;SDS011;69978;50.096;8.448;2023-12-20T10:54:25;14.10;;;1.38;;
31386;SDS011;69978;50.096;8.448;2023-12-20T10:56:51;11.73;;;1.13;;
31386;SDS011;69978;50.096;8.448;2023-12-20T10:59:19;9.02;;;1.10;;
31386;SDS011;69978;50.096;8.448;2023-12-20T11:01:45;9.30;;;0.90;;
31386;SDS011;69978;50.096;8.448;2023-12-20T11:04:15;7.00;;;1.00;;
31386;SDS011;69978;50.096;8.448;2023-12-20T11:06:58;9.45;;;1.20;;
31386;SDS011;69978;50.096;8.448;2023-12-20T11:09:31;6.78;;;0.95;;
31386;SDS011;69978;50.096;8.448;2023-12-20T11:12:10;9.38;;;0.80;;
31386;SDS011;69978;50.096;8.448;2023-12-20T11:15:01;8.60;;;0.95;;
31386;SDS011;69978;50.096;8.448;2023-12-20T11:17:29;9.57;;;1.00;;
31386;SDS011;69978;50.096;8.448;2023-12-20T11:22:24;7.72;;;0.88;;
31386;SDS011;69978;50.096;8.448;2023-12-20T11:24:50;8.73;;;0.95;;
31386;SDS011;69978;50.096;8.448;2023-12-20T11:27:17;10.68;;;0.88;;
31386;SDS011;69978;50.096;8.448;2023-12-20T11:29:50;2.13;;;0.40;;
31386;SDS011;69978;50.096;8.448;2023-12-20T11:59:26;5.65;;;0.50;;
31386;SDS011;69978;50.096;8.448;2023-12-20T12:01:52;4.40;;;0.45;;
31386;SDS011;69978;50.096;8.448;2023-12-20T12:04:21;9.75;;;0.55;;
31386;SDS011;69978;50.096;8.448;2023-12-20T12:06:46;4.68;;;0.50;;
31386;SDS011;69978;50.096;8.448;2023-12-20T12:09:12;8.27;;;1.15;;
31386;SDS011;69978;50.096;8.448;2023-12-20T12:11:38;3.22;;;0.70;;
31386;SDS011;69978;50.096;8.448;2023-12-20T12:14:03;4.20;;;0.68;;
31386;SDS011;69978;50.096;8.448;2023-12-20T12:16:29;12.15;;;0.63;;
31386;SDS011;69978;50.096;8.448;2023-12-20T12:18:58;3.92;;;0.70;;
31386;SDS011;69978;50.096;8.448;2023-12-20T12:21:24;7.45;;;0.95;;
31386;SDS011;69978;50.096;8.448;2023-12-20T12:23:51;4.93;;;0.80;;
31386;SDS011;69978;50.096;8.448;2023-12-20T12:26:18;3.97;;;0.60;;
31386;SDS011;69978;50.096;8.448;2023-12-20T12:28:43;6.57;;;0.73;;
31386;SDS011;69978;50.096;8.448;2023-12-20T12:31:13;5.90;;;0.57;;
31386;SDS011;69978;50.096;8.448;2023-12-20T12:33:42;3.55;;;0.43;;
31386;SDS011;69978;50.096;8.448;2023-12-20T12:36:09;5.78;;;0.80;;
31386;SDS011;69978;50.096;8.448;2023-12-20T12:38:36;5.88;;;0.75;;
31386;SDS011;69978;50.096;8.448;2023-12-20T12:41:02;12.13;;;0.70;;
31386;SDS011;69978;50.096;8.448;2023-12-20T12:43:28;7.40;;;0.65;;
31386;SDS011;69978;50.096;8.448;2023-12-20T12:45:53;6.70;;;0.68;;
31386;SDS011;69978;50.096;8.448;2023-12-20T12:48:23;5.72;;;0.60;;
31386;SDS011;69978;50.096;8.448;2023-12-20T12:50:49;4.10;;;0.45;;
31386;SDS011;69978;50.096;8.448;2023-12-20T12:53:17;7.72;;;0.60;;
31386;SDS011;69978;50.096;8.448;2023-12-20T12:55:42;10.50;;;0.68;;
31386;SDS011;69978;50.096;8.448;2023-12-20T12:58:08;4.72;;;0.55;;
31386;SDS011;69978;50.096;8.448;2023-12-20T13:00:36;7.15;;;0.40;;
31386;SDS011;69978;50.096;8.448;2023-12-20T13:03:02;6.07;;;0.60;;
31386;SDS011;69978;50.096;8.448;2023-12-20T13:05:27;7.57;;;0.70;;
31386;SDS011;69978;50.096;8.448;2023-12-20T13:07:54;3.97;;;0.52;;
31386;SDS011;69978;50.096;8.448;2023-12-20T13:10:21;8.82;;;0.68;;
31386;SDS011;69978;50.096;8.448;2023-12-20T13:12:47;3.80;;;0.50;;
31386;SDS011;69978;50.096;8.448;2023-12-20T13:15:12;6.30;;;0.70;;
31386;SDS011;69978;50.096;8.448;2023-12-20T13:17:38;3.35;;;0.65;;
31386;SDS011;69978;50.096;8.448;2023-12-20T13:20:05;3.42;;;0.50;;
31386;SDS011;69978;50.096;8.448;2023-12-20T13:22:31;8.32;;;0.88;;
31386;SDS011;69978;50.096;8.448;2023-12-20T13:24:57;10.35;;;0.60;;
31386;SDS011;69978;50.096;8.448;2023-12-20T13:27:22;6.45;;;0.68;;
31386;SDS011;69978;50.096;8.448;2023-12-20T13:29:49;5.85;;;0.40;;
31386;SDS011;69978;50.096;8.448;2023-12-20T13:32:14;7.03;;;0.68;;
31386;SDS011;69978;50.096;8.448;2023-12-20T13:34:41;4.75;;;0.60;;
31386;SDS011;69978;50.096;8.448;2023-12-20T13:37:06;5.40;;;0.80;;
31386;SDS011;69978;50.096;8.448;2023-12-20T13:39:32;3.33;;;0.50;;
31386;SDS011;69978;50.096;8.448;2023-12-20T13:41:58;2.67;;;0.70;;
31386;SDS011;69978;50.096;8.448;2023-12-20T13:44:23;5.45;;;1.38;;
31386;SDS011;69978;50.096;8.448;2023-12-20T13:46:49;7.40;;;0.95;;
31386;SDS011;69978;50.096;8.448;2023-12-20T13:49:15;5.65;;;0.90;;
31386;SDS011;69978;50.096;8.448;2023-12-20T13:51:40;8.18;;;0.70;;
31386;SDS011;69978;50.096;8.448;2023-12-20T13:54:06;5.22;;;0.52;;
31386;SDS011;69978;50.096;8.448;2023-12-20T13:56:32;6.13;;;0.50;;
31386;SDS011;69978;50.096;8.448;2023-12-20T13:58:58;3.72;;;0.40;;
31386;SDS011;69978;50.096;8.448;2023-12-20T14:01:24;5.05;;;0.60;;
31386;SDS011;69978;50.096;8.448;2023-12-20T14:03:51;2.60;;;0.65;;
31386;SDS011;69978;50.096;8.448;2023-12-20T14:06:17;4.50;;;0.50;;
31386;SDS011;69978;50.096;8.448;2023-12-20T14:08:43;6.70;;;0.60;;
31386;SDS011;69978;50.096;8.448;2023-12-20T14:11:08;4.88;;;0.60;;
31386;SDS011;69978;50.096;8.448;2023-12-20T14:13:35;3.30;;;0.40;;
31386;SDS011;69978;50.096;8.448;2023-12-20T14:16:00;3.92;;;0.70;;
31386;SDS011;69978;50.096;8.448;2023-12-20T14:18:27;3.78;;;0.50;;
31386;SDS011;69978;50.096;8.448;2023-12-20T14:20:53;4.68;;;0.90;;
31386;SDS011;69978;50.096;8.448;2023-12-20T14:23:19;1.13;;;0.38;;
31386;SDS011;69978;50.096;8.448;2023-12-20T14:25:44;2.95;;;0.43;;
31386;SDS011;69978;50.096;8.448;2023-12-20T14:28:10;5.60;;;0.43;;
31386;SDS011;69978;50.096;8.448;2023-12-20T14:30:38;4.20;;;0.50;;
31386;SDS011;69978;50.096;8.448;2023-12-20T14:33:04;3.47;;;0.52;;
31386;SDS011;69978;50.096;8.448;2023-12-20T14:35:30;3.47;;;0.35;;
31386;SDS011;69978;50.096;8.448;2023-12-20T14:37:56;1.85;;;0.40;;
31386;SDS011;69978;50.096;8.448;2023-12-20T14:40:22;2.95;;;0.43;;
31386;SDS011;69978;50.096;8.448;2023-12-20T14:42:48;5.78;;;0.50;;
31386;SDS011;69978;50.096;8.448;2023-12-20T14:45:14;4.18;;;0.55;;
31386;SDS011;69978;50.096;8.448;2023-12-20T14:47:41;3.55;;;0.38;;
31386;SDS011;69978;50.096;8.448;2023-12-20T14:50:07;6.43;;;0.30;;
31386;SDS011;69978;50.096;8.448;2023-12-20T14:52:33;3.45;;;0.38;;
31386;SDS011;69978;50.096;8.448;2023-12-20T14:54:59;5.53;;;0.47;;
31386;SDS011;69978;50.096;8.448;2023-12-20T14:57:25;3.08;;;0.50;;
31386;SDS011;69978;50.096;8.448;2023-12-20T14:59:51;4.55;;;0.60;;
31386;SDS011;69978;50.096;8.448;2023-12-20T15:02:17;9.82;;;1.10;;
31386;SDS011;69978;50.096;8.448;2023-12-20T15:04:43;6.57;;;0.90;;
31386;SDS011;69978;50.096;8.448;2023-12-20T15:07:08;3.88;;;0.40;;
31386;SDS011;69978;50.096;8.448;2023-12-20T15:09:34;7.35;;;0.40;;
31386;SDS011;69978;50.096;8.448;2023-12-20T15:11:59;10.32;;;0.50;;
31386;SDS011;69978;50.096;8.448;2023-12-20T15:14:25;2.70;;;0.30;;